Hovedside
METAR-TAF:

METAR-TAF

Lufthavner :

Heringsdorf, Tyskland

breddegrad: 53-53N, lengdegrad: 014-09E, høyde over havet: 28 m

Gjeldene værobservasjon

Denne rapporten ble laget for 32 minutter siden, klokken 09:50 UTC
Vind 9 kt fra Vest, skiftende mellom Vest-sørvest og Nordvest
Temperatur 17°C
Luftfuktighet 82%
Trykk 1014 hPa
Sikt 10 km eller mer
Få skyer i en høyde av 1400 ft
Brutte skyer i en høyde av 1700 ft

METAR: EDAH 190950Z 28009KT 250V310 9999 FEW014 BKN017 17/14 Q1014

Tid: 12:22 (10:22 UTC)

Varsel

Denne rapporten ble laget for 2 timer og 22 minutter siden, klokken 08:00 UTC
Varsel gyldig fra 19. klokken 09 UTC til 19. klokken 18 UTC
Vind 6 kt fra Nordvest
Sikt 10 km eller mer
Brutte skyer i en høyde av 2000 ft
Sannsynlighet 30% :
Midlertidig
fra 19. klokken 09 UTC til 19. klokken 11 UTC
Brutte skyer i en høyde av 900 ft

TAF: EDAH 190800Z 1909/1918 31006KT 9999 BKN020 PROB30 TEMPO 1909/1911 BKN009

Værobservasjoner og værvarsel for over 4000 flyplasser (METAR- og TAF-rapporter).

Tilgjengelige stasjoner er representert av de røde og gule prikkene på kartet.

Hold musepekeren over prikken for å se navnet på stasjonen.

Klikk så for å se værobservasjoner og -varsler.

For å forandre kartet kan du klikke på den grønne knappen med svart kryss for å zoome inn, på den grønne knappen med strek for å zoome ut, eller på de grønne pilene for å se tilstøtende kart.


METAR-TAF: